Burton City, Ohio
Current Conditions -  °F | °C
As of 11:56 PM on Sunday 21 Dec 2014 (Local Time) from KBJJ Reporting Station
Haze Haze  
Wind Chill: 14°   Ceiling: Unl
Heat Index: 22°   Visibility: 6mi
Dew Point: 18°   Wind: 6mph
Humidity: 85%   Direction: 80°E
Pressure: 30.17"   Gusts: NA
Location:  40.8369°N, 81.7632°W
Report Text: KBJJ 220456Z AUTO 08005KT 6SM BR CLR M06/M08 A3017 RMK AO2 SLP231 T10561078 410111056 TSNO
Loading
Personal Weather Stations






























Interactive Weather Map New forecast layout! Learn more

10-Day Weather Forecast

Advertisements
Track Severe Weather on mobile